Time;durP1;ratioP1;P1;durP2;ratioP2;P2;SDS_P1;SDS_P2;PMS_P1;PMS_P2;Temp;Humidity;BMP_temperature;BMP_pressure;BME280_temperature;BME280_humidity;BME280_pressure;Samples;Min_cycle;Max_cycle;Signal;HPM_P1;HPM_P2
2021/06/19 00:00:39;;;;;;;12.68;8.23;;;;;;;20.54;81.48;101180.97;5132990;27;20046;-49
2021/06/19 00:03:06;;;;;;;12.80;8.70;;;;;;;20.55;81.82;101186.13;5114933;27;20047;-52
2021/06/19 00:05:34;;;;;;;13.50;8.70;;;;;;;20.50;82.00;101180.44;5133443;27;20036;-51
2021/06/19 00:08:01;;;;;;;14.65;9.15;;;;;;;20.42;82.07;101185.72;5115385;27;20058;-48
2021/06/19 00:10:27;;;;;;;13.07;8.70;;;;;;;20.42;82.36;101185.72;5133511;27;20533;-49
2021/06/19 00:12:54;;;;;;;11.88;9.02;;;;;;;20.48;82.04;101193.13;5132862;27;20513;-49
2021/06/19 00:15:22;;;;;;;12.70;8.15;;;;;;;20.51;82.29;101187.44;5132279;27;20039;-49
2021/06/19 00:17:49;;;;;;;14.13;8.52;;;;;;;20.52;81.82;101201.63;5133163;27;20478;-46
2021/06/19 00:20:18;;;;;;;14.40;8.02;;;;;;;20.37;82.34;101196.88;5133220;27;20047;-48
2021/06/19 00:22:46;;;;;;;13.50;9.55;;;;;;;20.29;83.16;101199.50;5133575;27;20108;-48
2021/06/19 00:25:15;;;;;;;11.95;8.75;;;;;;;20.36;82.78;101205.06;5115068;27;20054;-46
2021/06/19 00:27:42;;;;;;;14.95;8.70;;;;;;;20.41;82.73;101200.91;5132902;27;20058;-52
2021/06/19 00:30:11;;;;;;;15.85;9.77;;;;;;;20.41;82.28;101211.59;5114091;27;20823;-47
2021/06/19 00:32:39;;;;;;;13.75;9.20;;;;;;;20.48;82.31;101203.81;5114684;27;20062;-43
2021/06/19 00:35:07;;;;;;;13.90;9.77;;;;;;;20.36;82.59;101205.88;5132849;27;20047;-49
2021/06/19 00:37:35;;;;;;;17.00;9.40;;;;;;;20.36;82.75;101205.06;5133192;27;20388;-47
2021/06/19 00:40:04;;;;;;;12.82;9.52;;;;;;;20.36;82.80;101202.38;5132979;27;20062;-46
2021/06/19 00:42:31;;;;;;;13.13;9.70;;;;;;;20.38;82.23;101208.38;5132594;27;20054;-49
2021/06/19 00:44:58;;;;;;;13.25;9.27;;;;;;;20.43;82.44;101209.59;5131945;27;20506;-49
2021/06/19 00:47:26;;;;;;;15.40;9.68;;;;;;;20.42;82.10;101205.25;5132580;27;20047;-48
2021/06/19 00:49:53;;;;;;;12.98;9.07;;;;;;;20.47;81.89;101201.28;5114746;27;20053;-47
2021/06/19 00:52:20;;;;;;;13.40;9.35;;;;;;;20.33;82.14;101200.00;5114814;27;20101;-47
2021/06/19 00:54:47;;;;;;;13.70;10.60;;;;;;;20.32;82.91;101203.69;5114235;27;20054;-47
2021/06/19 00:57:14;;;;;;;13.18;9.35;;;;;;;20.34;82.87;101207.88;5114173;27;20104;-49
2021/06/19 00:59:42;;;;;;;13.55;10.30;;;;;;;20.26;83.09;101203.31;5113836;27;20039;-48
2021/06/19 01:02:09;;;;;;;14.55;11.00;;;;;;;20.27;83.36;101206.81;5113532;27;20043;-45
2021/06/19 01:04:36;;;;;;;14.07;10.32;;;;;;;20.13;83.53;101194.03;5132314;27;20047;-47
2021/06/19 01:07:03;;;;;;;16.38;11.15;;;;;;;20.09;83.74;101202.31;5132150;27;20168;-49
2021/06/19 01:09:30;;;;;;;14.65;10.68;;;;;;;20.09;84.23;101199.66;5132655;27;20087;-55
2021/06/19 01:11:57;;;;;;;20.15;10.50;;;;;;;20.11;83.83;101199.53;5131813;27;20051;-56
2021/06/19 01:14:23;;;;;;;12.38;10.13;;;;;;;20.17;83.57;101195.38;5114020;27;20116;-56
2021/06/19 01:16:52;;;;;;;14.23;9.95;;;;;;;20.09;83.90;101194.31;5114056;27;20046;-55
2021/06/19 01:19:19;;;;;;;13.90;10.30;;;;;;;20.06;83.75;101193.78;5132459;27;20119;-55
2021/06/19 01:21:51;;;;;;;13.25;9.32;;;;;;;19.99;83.80;101201.56;5131957;27;20059;-54
2021/06/19 01:24:18;;;;;;;12.40;8.57;;;;;;;19.93;83.84;101195.03;5114595;27;20055;-55
2021/06/19 01:26:44;;;;;;;11.38;7.85;;;;;;;19.92;83.14;101197.84;5131423;27;20294;-56
2021/06/19 01:29:11;;;;;;;10.75;7.25;;;;;;;19.92;83.63;101200.53;5132201;27;20043;-55
2021/06/19 01:31:39;;;;;;;10.85;6.38;;;;;;;19.93;82.95;101194.16;5130818;27;20407;-56
2021/06/19 01:34:06;;;;;;;11.13;5.38;;;;;;;19.90;82.34;101197.97;5131939;27;20057;-55
2021/06/19 01:36:33;;;;;;;8.20;4.68;;;;;;;19.94;82.24;101195.84;5131977;27;20433;-54
2021/06/19 01:39:00;;;;;;;8.63;4.25;;;;;;;19.90;81.98;101197.16;5132121;27;20058;-55
2021/06/19 01:41:28;;;;;;;8.07;3.50;;;;;;;19.86;81.86;101193.94;5130890;27;20552;-56
2021/06/19 01:44:04;;;;;;;6.68;3.33;;;;;;;19.83;81.94;101198.75;5114010;27;20043;-56
2021/06/19 01:46:33;;;;;;;7.00;3.20;;;;;;;19.77;82.16;101202.84;5130612;27;20136;-57
2021/06/19 01:49:01;;;;;;;4.70;2.92;;;;;;;19.82;81.51;101205.06;5131655;27;20547;-56
2021/06/19 01:51:27;;;;;;;5.07;2.83;;;;;;;19.80;81.48;101199.03;5131366;27;20440;-53
2021/06/19 01:53:54;;;;;;;6.18;2.83;;;;;;;19.79;81.14;101200.84;5131870;27;20066;-55
2021/06/19 01:56:22;;;;;;;6.30;2.80;;;;;;;19.76;81.83;101201.16;5130450;27;20402;-56
2021/06/19 01:58:50;;;;;;;5.15;2.40;;;;;;;19.81;81.43;101203.38;5131234;27;20563;-46
2021/06/19 02:01:17;;;;;;;8.07;2.85;;;;;;;19.81;81.35;101195.38;5130471;27;20051;-48
2021/06/19 02:03:45;;;;;;;5.68;3.00;;;;;;;19.79;81.38;101203.50;5113252;27;20528;-48
2021/06/19 02:06:12;;;;;;;7.50;2.53;;;;;;;19.78;81.63;101188.50;5130709;27;20035;-51
2021/06/19 02:08:39;;;;;;;6.70;2.72;;;;;;;19.79;81.21;101202.69;5130888;27;20080;-49
2021/06/19 02:11:07;;;;;;;4.85;2.38;;;;;;;19.75;81.36;101202.13;5130463;27;20062;-48
2021/06/19 02:13:37;;;;;;;5.68;2.85;;;;;;;19.76;81.21;101187.81;5131327;27;20047;-46
2021/06/19 02:16:05;;;;;;;5.18;2.60;;;;;;;19.72;81.17;101189.94;5130100;27;20039;-44
2021/06/19 02:18:32;;;;;;;6.65;3.30;;;;;;;19.75;81.91;101197.63;5131244;27;20096;-49
2021/06/19 02:20:59;;;;;;;10.50;3.97;;;;;;;19.77;81.64;101195.66;5130927;27;20636;-49
2021/06/19 02:23:26;;;;;;;7.00;3.30;;;;;;;19.77;81.60;101194.84;5131184;27;20039;-48
2021/06/19 02:25:53;;;;;;;5.55;3.13;;;;;;;19.73;81.75;101196.97;5112439;27;20096;-49
2021/06/19 02:28:23;;;;;;;9.02;3.40;;;;;;;19.77;81.54;101197.50;5130657;27;20038;-47
2021/06/19 02:30:53;;;;;;;6.32;2.97;;;;;;;19.76;81.61;101199.31;5111636;27;20047;-47
2021/06/19 02:33:21;;;;;;;9.18;3.13;;;;;;;19.75;81.42;101205.63;5113045;27;20051;-48
2021/06/19 02:35:48;;;;;;;5.18;3.08;;;;;;;19.75;81.52;101202.13;5130866;27;20043;-48
2021/06/19 02:38:16;;;;;;;4.97;3.17;;;;;;;19.73;81.49;101209.47;5131211;27;20095;-46
2021/06/19 02:40:44;;;;;;;5.88;3.30;;;;;;;19.71;81.55;101208.78;5130546;27;20055;-49
2021/06/19 02:43:11;;;;;;;7.90;3.55;;;;;;;19.69;81.80;101214.25;5111427;27;20047;-44
2021/06/19 02:45:38;;;;;;;5.05;3.05;;;;;;;19.70;81.54;101220.44;5094972;27;20517;-49
2021/06/19 02:48:05;;;;;;;10.60;4.50;;;;;;;19.65;81.75;101218.22;5129766;27;20441;-51
2021/06/19 02:50:36;;;;;;;9.13;3.88;;;;;;;19.66;81.93;101214.56;5130427;27;20047;-50
2021/06/19 02:53:04;;;;;;;7.43;3.40;;;;;;;19.63;81.84;101214.03;5130566;27;20051;-49
2021/06/19 02:55:36;;;;;;;7.30;3.85;;;;;;;19.66;81.92;101211.03;5130261;27;20092;-47
2021/06/19 02:58:04;;;;;;;6.47;3.60;;;;;;;19.58;82.37;101217.97;5129385;27;20507;-48
2021/06/19 03:00:31;;;;;;;7.25;4.03;;;;;;;19.56;82.37;101219.94;5111552;28;20111;-47
2021/06/19 03:02:59;;;;;;;6.55;4.10;;;;;;;19.61;82.28;101227.50;5111578;28;20059;-49
2021/06/19 03:05:28;;;;;;;6.78;4.10;;;;;;;19.63;82.54;101224.69;5130555;28;20069;-47
2021/06/19 03:07:55;;;;;;;10.45;4.30;;;;;;;19.64;83.36;101227.22;5130105;28;20054;-50
2021/06/19 03:10:28;;;;;;;7.90;4.07;;;;;;;19.66;83.29;101233.25;5130888;27;20043;-47
2021/06/19 03:12:56;;;;;;;9.35;5.13;;;;;;;19.66;83.58;101235.91;5115983;27;20488;-44
2021/06/19 03:15:23;;;;;;;6.88;4.00;;;;;;;19.67;83.12;101229.56;5134192;27;20055;-48
2021/06/19 03:17:50;;;;;;;6.22;4.18;;;;;;;19.69;83.78;101232.94;5134327;27;20047;-47
2021/06/19 03:20:18;;;;;;;7.30;4.05;;;;;;;19.73;83.36;101231.66;5134455;27;20096;-47
2021/06/19 03:22:58;;;;;;;8.30;4.97;;;;;;;19.74;83.42;101235.13;5134863;27;20486;-46
2021/06/19 03:25:28;;;;;;;9.18;4.90;;;;;;;19.79;83.42;101248.88;5116371;27;20054;-47
2021/06/19 03:27:56;;;;;;;7.25;4.30;;;;;;;19.79;83.65;101250.72;5133690;27;20522;-48
2021/06/19 03:30:23;;;;;;;6.68;4.32;;;;;;;19.82;83.54;101256.59;5133769;27;20422;-45
2021/06/19 03:32:51;;;;;;;7.40;4.05;;;;;;;19.84;83.18;101249.31;5133883;27;20388;-45
2021/06/19 03:35:18;;;;;;;6.78;4.05;;;;;;;19.86;83.56;101251.81;5115742;27;20599;-46
2021/06/19 03:37:46;;;;;;;6.80;4.60;;;;;;;19.80;83.16;101247.06;5134160;27;20047;-51
2021/06/19 03:40:14;;;;;;;7.60;4.55;;;;;;;19.86;83.37;101252.66;5134139;27;20107;-44
2021/06/19 03:42:42;;;;;;;5.60;4.00;;;;;;;19.90;83.35;101253.19;5133615;27;20059;-47
2021/06/19 03:45:10;;;;;;;7.13;3.80;;;;;;;19.91;82.74;101260.22;5132608;27;20121;-44
2021/06/19 03:47:39;;;;;;;5.90;3.53;;;;;;;19.98;83.14;101260.44;5133386;27;20043;-49
2021/06/19 03:50:14;;;;;;;5.85;3.60;;;;;;;20.00;82.72;101266.47;5132980;27;20104;-49
2021/06/19 03:52:44;;;;;;;5.40;3.70;;;;;;;19.98;82.88;101265.78;5116606;27;20047;-49
2021/06/19 03:55:12;;;;;;;5.75;3.83;;;;;;;19.98;83.09;101271.97;5133692;27;20440;-49
2021/06/19 03:57:39;;;;;;;6.70;3.90;;;;;;;20.01;82.87;101274.31;5133563;27;20092;-49
2021/06/19 04:00:08;;;;;;;6.07;3.67;;;;;;;20.02;82.90;101269.84;5097464;27;20047;-50
2021/06/19 04:02:35;;;;;;;5.68;3.72;;;;;;;20.08;83.10;101271.88;5115789;27;20491;-47
2021/06/19 04:05:03;;;;;;;7.50;3.67;;;;;;;20.10;83.23;101276.09;5133094;27;20100;-50
2021/06/19 04:07:30;;;;;;;7.65;3.67;;;;;;;20.14;82.56;101268.63;5133863;27;20054;-45
2021/06/19 04:09:57;;;;;;;5.68;3.70;;;;;;;20.12;82.46;101270.59;5133227;27;20065;-46
2021/06/19 04:12:24;;;;;;;5.68;3.45;;;;;;;20.09;82.45;101274.41;5115403;27;20059;-47
2021/06/19 04:14:51;;;;;;;7.78;4.22;;;;;;;20.13;82.28;101274.13;5132873;27;20047;-46
2021/06/19 04:17:18;;;;;;;6.90;3.67;;;;;;;20.16;82.14;101269.28;5133328;27;20558;-47
2021/06/19 04:19:46;;;;;;;7.03;3.88;;;;;;;20.19;81.80;101276.16;5133140;27;20092;-49
2021/06/19 04:22:13;;;;;;;7.95;4.43;;;;;;;20.20;82.13;101286.69;5132746;27;20055;-45
2021/06/19 04:24:41;;;;;;;5.85;3.65;;;;;;;20.22;81.70;101289.19;5133350;27;20063;-52
2021/06/19 04:27:16;;;;;;;5.57;3.80;;;;;;;20.22;81.21;101295.38;5132360;27;20395;-48
2021/06/19 04:29:43;;;;;;;6.00;3.50;;;;;;;20.26;81.16;101294.09;5114558;27;20261;-49
2021/06/19 04:32:10;;;;;;;6.03;3.60;;;;;;;20.29;82.12;101292.09;5132526;27;20047;-48
2021/06/19 04:34:38;;;;;;;5.60;3.47;;;;;;;20.31;81.74;101295.47;5133339;27;20054;-50
2021/06/19 04:37:14;;;;;;;6.33;4.10;;;;;;;20.36;80.45;101301.19;5132979;27;20039;-47
2021/06/19 04:39:51;;;;;;;6.88;3.92;;;;;;;20.35;80.47;101305.69;5114979;27;20050;-49
2021/06/19 04:42:18;;;;;;;6.20;3.85;;;;;;;20.35;80.38;101304.84;5132030;27;20074;-48
2021/06/19 04:47:25;;;;;;;4.75;3.10;;;;;;;20.37;80.53;101311.72;5132951;27;20043;-48
2021/06/19 04:49:52;;;;;;;6.25;3.88;;;;;;;20.36;80.57;101310.03;5132580;27;20046;-48
2021/06/19 04:52:20;;;;;;;7.28;3.88;;;;;;;20.39;81.14;101312.38;5132718;27;20071;-49
2021/06/19 04:54:47;;;;;;;7.38;4.35;;;;;;;20.46;80.01;101319.81;5132904;27;20039;-49
2021/06/19 04:57:14;;;;;;;7.80;4.70;;;;;;;20.46;80.24;101320.63;5096895;27;20039;-48
2021/06/19 04:59:41;;;;;;;10.98;5.20;;;;;;;20.43;80.52;101312.94;5132119;27;20573;-46
2021/06/19 05:02:08;;;;;;;6.25;4.50;;;;;;;20.43;80.87;101323.63;5132282;27;20047;-44
2021/06/19 05:04:35;;;;;;;6.93;4.60;;;;;;;20.52;79.52;101321.84;5132568;27;20051;-51
2021/06/19 05:07:02;;;;;;;8.30;4.88;;;;;;;20.49;80.38;101330.19;5113784;27;20066;-48
2021/06/19 05:09:29;;;;;;;6.45;4.38;;;;;;;20.49;80.07;101338.19;5132264;27;20409;-49
2021/06/19 05:11:56;;;;;;;8.10;5.43;;;;;;;20.40;80.49;101343.47;5113749;27;20081;-47
2021/06/19 05:14:22;;;;;;;7.85;5.10;;;;;;;20.47;80.28;101345.53;5132051;27;20047;-46
2021/06/19 05:16:49;;;;;;;10.43;5.38;;;;;;;20.52;80.03;101351.22;5131496;27;20055;-48
2021/06/19 05:19:18;;;;;;;8.27;5.20;;;;;;;20.62;79.99;101341.31;5132214;27;20047;-47
2021/06/19 05:21:45;;;;;;;8.55;5.68;;;;;;;20.49;79.46;101340.88;5132484;27;20508;-50
2021/06/19 05:24:12;;;;;;;9.00;5.55;;;;;;;20.60;78.35;101338.81;5113812;27;20073;-48
2021/06/19 05:26:40;;;;;;;9.00;5.10;;;;;;;20.64;78.13;101346.50;5131247;27;20039;-46
2021/06/19 05:29:07;;;;;;;11.50;5.47;;;;;;;20.66;77.97;101350.69;5131674;27;20051;-46
2021/06/19 05:31:34;;;;;;;7.35;5.22;;;;;;;20.68;77.83;101356.78;5112782;27;20043;-48
2021/06/19 05:34:01;;;;;;;8.45;6.10;;;;;;;20.71;77.51;101352.94;5130568;27;20410;-47
2021/06/19 05:36:28;;;;;;;7.70;5.47;;;;;;;20.76;77.20;101356.00;5131563;27;20098;-50
2021/06/19 05:38:54;;;;;;;8.25;5.43;;;;;;;20.83;77.92;101356.22;5132453;27;20051;-50
2021/06/19 05:41:21;;;;;;;8.02;5.55;;;;;;;20.91;77.72;101351.78;5131221;27;20146;-48
2021/06/19 05:43:48;;;;;;;9.10;5.75;;;;;;;20.98;75.94;101357.31;5131926;27;20047;-46
2021/06/19 05:46:16;;;;;;;7.90;5.60;;;;;;;21.08;76.52;101350.06;5130554;27;20526;-47
2021/06/19 05:48:43;;;;;;;7.90;5.65;;;;;;;21.16;76.02;101362.66;5132090;27;20104;-51
2021/06/19 05:51:09;;;;;;;6.90;5.15;;;;;;;21.21;75.66;101363.00;5131187;27;20070;-48
2021/06/19 05:53:36;;;;;;;8.00;5.32;;;;;;;21.36;75.63;101365.91;5132220;27;20058;-48
2021/06/19 05:56:03;;;;;;;8.45;5.53;;;;;;;21.42;75.08;101373.34;5131238;27;20058;-48
2021/06/19 05:58:30;;;;;;;7.93;5.85;;;;;;;21.45;75.19;101370.31;5131261;27;20047;-49
2021/06/19 06:00:57;;;;;;;8.43;6.30;;;;;;;21.51;73.04;101365.34;5109962;27;20039;-45
2021/06/19 06:03:24;;;;;;;8.50;5.93;;;;;;;21.60;73.93;101367.09;5130463;27;20047;-49
2021/06/19 06:05:51;;;;;;;10.95;5.88;;;;;;;21.78;73.73;101375.03;5130625;27;20382;-48
2021/06/19 06:08:18;;;;;;;8.82;6.30;;;;;;;21.85;73.28;101373.38;5130676;27;20035;-50
2021/06/19 06:10:45;;;;;;;8.23;6.32;;;;;;;21.82;73.08;101372.88;5130918;27;20043;-46
2021/06/19 06:13:12;;;;;;;9.77;6.80;;;;;;;21.81;72.34;101382.75;5111785;27;20104;-49
2021/06/19 06:15:39;;;;;;;7.97;6.00;;;;;;;21.90;73.06;101384.47;5129976;27;20049;-51
2021/06/19 06:18:06;;;;;;;9.50;6.05;;;;;;;22.01;72.03;101396.72;5129815;27;20065;-57
2021/06/19 06:20:32;;;;;;;10.32;6.15;;;;;;;22.07;72.07;101385.38;5112150;27;20396;-57
2021/06/19 06:22:59;;;;;;;8.13;5.78;;;;;;;22.16;70.81;101383.53;5130345;27;20542;-56
2021/06/19 06:25:26;;;;;;;9.10;5.80;;;;;;;22.17;70.33;101392.41;5130404;27;20043;-56
2021/06/19 06:27:53;;;;;;;7.68;6.03;;;;;;;22.17;70.47;101387.03;5129922;27;20479;-56
2021/06/19 06:30:21;;;;;;;9.07;6.18;;;;;;;22.23;69.74;101387.22;5110960;27;20046;-56
2021/06/19 06:32:47;;;;;;;9.05;5.55;;;;;;;22.32;69.87;101389.94;5111562;27;20524;-57
2021/06/19 06:35:14;;;;;;;9.27;5.90;;;;;;;22.27;70.24;101398.47;5129673;27;20051;-55
2021/06/19 06:37:42;;;;;;;12.55;9.90;;;;;;;22.12;69.06;101404.44;5112729;27;20086;-55
2021/06/19 06:40:12;;;;;;;13.75;10.60;;;;;;;22.23;69.21;101403.31;5129865;27;20059;-56
2021/06/19 06:42:41;;;;;;;16.25;11.57;;;;;;;22.31;68.59;101410.53;5129281;27;20054;-57
2021/06/19 06:45:13;;;;;;;15.38;11.95;;;;;;;22.32;69.08;101412.22;5129153;27;20047;-56
2021/06/19 06:47:45;;;;;;;15.77;11.27;;;;;;;22.32;68.35;101420.25;5129810;27;20061;-56
2021/06/19 06:50:12;;;;;;;18.98;11.98;;;;;;;22.27;67.81;101406.50;5110955;28;20047;-55
2021/06/19 06:52:42;;;;;;;16.92;12.70;;;;;;;22.44;68.04;101418.97;5112523;27;20432;-56
2021/06/19 06:55:09;;;;;;;16.85;11.77;;;;;;;22.57;67.50;101420.34;5129691;27;20039;-57
2021/06/19 06:57:36;;;;;;;15.57;11.80;;;;;;;22.65;68.18;101422.19;5129745;27;20047;-57
2021/06/19 07:00:05;;;;;;;16.73;12.30;;;;;;;22.75;66.59;101417.50;5129158;27;20039;-56
2021/06/19 07:02:32;;;;;;;17.38;12.88;;;;;;;22.84;65.85;101426.38;5111513;27;20039;-57
2021/06/19 07:04:59;;;;;;;18.00;12.32;;;;;;;22.74;66.27;101423.84;5111977;27;20514;-57
2021/06/19 07:07:26;;;;;;;17.23;12.30;;;;;;;22.87;66.33;101431.41;5130311;27;20050;-57
2021/06/19 07:09:53;;;;;;;15.57;11.65;;;;;;;23.05;65.88;101424.03;5130017;28;20047;-57
2021/06/19 07:12:19;;;;;;;19.35;12.15;;;;;;;22.94;64.04;101435.09;5129022;28;20116;-57
2021/06/19 07:14:46;;;;;;;18.17;12.00;;;;;;;23.16;64.69;101436.28;5129037;28;20563;-56
2021/06/19 07:17:13;;;;;;;16.52;10.73;;;;;;;23.10;62.99;101436.94;5111253;28;20100;-57
2021/06/19 07:19:40;;;;;;;15.20;10.07;;;;;;;23.07;63.22;101438.13;5129866;28;20043;-49
2021/06/19 07:22:08;;;;;;;17.10;10.30;;;;;;;23.11;62.06;101434.09;5129765;28;20051;-47
2021/06/19 07:24:35;;;;;;;14.55;9.50;;;;;;;23.33;63.00;101444.31;5129617;28;20043;-47
2021/06/19 07:27:03;;;;;;;15.18;8.63;;;;;;;23.34;62.98;101446.00;5129130;28;20108;-47
2021/06/19 07:29:30;;;;;;;14.25;9.88;;;;;;;23.27;61.53;101444.03;5128984;28;20081;-47
2021/06/19 07:31:57;;;;;;;15.02;9.15;;;;;;;23.43;61.54;101445.81;5129194;28;20526;-46
2021/06/19 07:34:24;;;;;;;14.40;7.97;;;;;;;23.58;61.62;101453.19;5129425;28;20422;-48
2021/06/19 07:36:51;;;;;;;12.93;7.80;;;;;;;23.63;61.02;101445.47;5129484;28;20432;-46
2021/06/19 07:39:18;;;;;;;13.02;8.38;;;;;;;23.59;60.64;101446.81;5129419;28;20043;-48
2021/06/19 07:41:44;;;;;;;12.93;8.43;;;;;;;23.60;60.19;101453.84;5128878;28;20050;-56
2021/06/19 07:44:11;;;;;;;13.70;8.32;;;;;;;23.65;60.92;101451.47;5129450;28;20058;-56
2021/06/19 07:46:38;;;;;;;15.63;8.90;;;;;;;23.57;61.37;101454.19;5128282;28;20047;-55
2021/06/19 07:49:05;;;;;;;12.60;8.45;;;;;;;23.50;60.24;101463.94;5129756;28;20083;-56
2021/06/19 07:51:32;;;;;;;13.15;8.93;;;;;;;23.56;60.75;101460.56;5129399;28;20039;-57
2021/06/19 07:54:00;;;;;;;11.65;8.43;;;;;;;23.69;60.90;101460.03;5111073;28;20059;-56
2021/06/19 07:56:27;;;;;;;13.85;9.85;;;;;;;23.94;59.31;101450.09;5129139;27;20491;-57
2021/06/19 07:58:53;;;;;;;15.52;10.70;;;;;;;24.16;58.79;101453.00;5115330;27;20166;-56
2021/06/19 08:01:20;;;;;;;13.40;8.88;;;;;;;24.34;59.13;101455.44;5132056;27;20043;-57
2021/06/19 08:03:47;;;;;;;11.57;9.18;;;;;;;24.54;57.78;101453.16;5132725;27;20145;-49
2021/06/19 08:06:14;;;;;;;11.73;8.60;;;;;;;24.74;57.33;101457.06;5133055;27;20534;-50
2021/06/19 08:08:41;;;;;;;13.80;9.15;;;;;;;24.77;56.94;101454.03;5115053;27;20055;-49
2021/06/19 08:11:07;;;;;;;12.43;8.65;;;;;;;24.92;57.25;101451.41;5132489;27;20051;-49
2021/06/19 08:13:34;;;;;;;15.40;9.30;;;;;;;24.89;56.33;101450.94;5132618;27;20096;-50
2021/06/19 08:16:05;;;;;;;13.27;8.85;;;;;;;24.89;56.46;101448.25;5113786;27;20052;-48
2021/06/19 08:18:32;;;;;;;14.65;9.73;;;;;;;25.09;54.75;101452.09;5132550;27;20382;-50
2021/06/19 08:21:01;;;;;;;14.63;9.25;;;;;;;25.24;54.73;101444.06;5113980;27;20054;-51
2021/06/19 08:23:28;;;;;;;13.02;8.80;;;;;;;25.20;55.12;101442.75;5132848;27;20126;-49
2021/06/19 08:25:54;;;;;;;14.52;9.20;;;;;;;25.34;53.78;101441.13;5132764;27;20058;-48
2021/06/19 08:28:21;;;;;;;12.60;9.55;;;;;;;25.46;53.47;101453.13;5132116;27;20092;-49
2021/06/19 08:30:48;;;;;;;14.48;9.52;;;;;;;25.60;54.64;101458.72;5096792;27;20058;-49
2021/06/19 08:33:15;;;;;;;13.70;9.73;;;;;;;25.68;53.42;101460.50;5132302;27;20043;-52
2021/06/19 08:35:42;;;;;;;14.77;10.57;;;;;;;25.55;52.98;101458.44;5132500;27;20460;-50
2021/06/19 08:38:08;;;;;;;15.65;10.27;;;;;;;25.43;53.35;101461.56;5132264;27;20109;-52
2021/06/19 08:40:38;;;;;;;23.77;10.82;;;;;;;25.55;54.43;101463.81;5132433;27;20047;-52
2021/06/19 08:43:05;;;;;;;19.05;10.43;;;;;;;25.65;53.72;101464.38;5113136;27;20055;-54
2021/06/19 08:45:33;;;;;;;33.20;12.50;;;;;;;25.64;54.44;101460.84;5113719;27;20043;-56
2021/06/19 08:48:00;;;;;;;38.60;13.18;;;;;;;25.83;53.98;101460.50;5113847;27;20051;-59
2021/06/19 08:50:28;;;;;;;55.17;14.63;;;;;;;26.15;53.24;101462.81;5131899;27;20126;-57
2021/06/19 08:52:55;;;;;;;17.63;11.30;;;;;;;26.39;52.63;101463.50;5132057;27;20084;-60
2021/06/19 08:55:26;;;;;;;17.15;10.77;;;;;;;26.42;52.64;101456.88;5114595;27;20054;-54
2021/06/19 08:57:52;;;;;;;21.17;12.77;;;;;;;26.43;52.14;101448.59;5131329;27;20083;-54
2021/06/19 09:00:20;;;;;;;16.33;11.98;;;;;;;26.67;50.73;101446.59;5131383;27;20504;-55
2021/06/19 09:02:48;;;;;;;16.98;11.70;;;;;;;26.91;51.39;101452.66;5113184;27;20051;-56
2021/06/19 09:05:17;;;;;;;16.98;11.93;;;;;;;26.51;50.60;101457.63;5113981;27;20055;-54
2021/06/19 09:07:44;;;;;;;14.60;10.60;;;;;;;26.68;49.66;101463.59;5131490;27;20043;-54
2021/06/19 09:10:31;;;;;;;14.82;11.20;;;;;;;26.69;50.19;101463.41;5113088;27;20042;-53
2021/06/19 09:13:07;;;;;;;15.77;9.73;;;;;;;26.92;49.53;101459.72;5112953;27;20051;-51
2021/06/19 09:15:40;;;;;;;14.32;10.32;;;;;;;27.02;49.62;101459.38;5130744;27;20051;-54
2021/06/19 09:18:13;;;;;;;14.52;10.15;;;;;;;27.00;48.69;101451.50;5130783;27;20506;-54
2021/06/19 09:20:40;;;;;;;11.90;8.98;;;;;;;26.72;49.79;101457.66;5130810;27;20061;-51
2021/06/19 09:23:11;;;;;;;13.32;9.95;;;;;;;26.93;50.22;101458.69;5130805;27;20054;-55
2021/06/19 09:25:39;;;;;;;12.10;9.20;;;;;;;27.18;50.19;101463.69;5129114;27;20047;-55
2021/06/19 09:28:07;;;;;;;13.20;9.48;;;;;;;26.81;50.17;101458.38;5112382;27;20050;-53
2021/06/19 09:30:36;;;;;;;10.50;8.43;;;;;;;26.82;50.30;101466.25;5111630;27;20039;-54
2021/06/19 09:33:08;;;;;;;15.88;9.65;;;;;;;26.70;49.94;101467.81;5126751;27;20054;-55
2021/06/19 09:35:38;;;;;;;12.82;9.95;;;;;;;26.53;50.40;101461.78;5130026;27;20051;-56
2021/06/19 09:38:06;;;;;;;13.07;10.52;;;;;;;26.41;49.52;101472.25;5129543;27;20043;-55
2021/06/19 09:40:38;;;;;;;11.73;9.00;;;;;;;26.68;49.99;101467.13;5129509;27;20052;-55
2021/06/19 09:43:28;;;;;;;12.40;9.63;;;;;;;26.90;49.06;101459.91;5107118;28;20516;-54
2021/06/19 09:46:02;;;;;;;10.95;8.48;;;;;;;26.50;48.33;101467.56;5108525;28;20067;-55
2021/06/19 09:48:31;;;;;;;13.02;10.52;;;;;;;26.33;49.85;101461.56;5107293;28;20774;-53
2021/06/19 09:51:15;;;;;;;12.80;9.73;;;;;;;26.81;49.55;101461.91;5107887;28;20047;-56
2021/06/19 09:53:52;;;;;;;11.07;9.70;;;;;;;27.05;49.03;101459.84;5110661;28;20051;-55
2021/06/19 09:56:21;;;;;;;11.48;9.73;;;;;;;27.20;49.14;101456.19;5112692;28;20040;-55
2021/06/19 09:58:50;;;;;;;13.32;10.10;;;;;;;27.41;48.17;101464.28;5112717;28;20522;-55
2021/06/19 10:01:39;;;;;;;12.23;9.80;;;;;;;27.34;47.85;101452.59;5112868;28;20146;-53
2021/06/19 10:04:09;;;;;;;13.65;10.98;;;;;;;27.36;46.66;101473.97;5112088;28;20044;-55
2021/06/19 10:06:37;;;;;;;11.70;9.40;;;;;;;27.64;48.23;101468.59;5104583;28;20052;-56
2021/06/19 10:09:05;;;;;;;12.75;9.77;;;;;;;27.56;47.41;101468.75;5107431;28;20040;-55
2021/06/19 10:11:32;;;;;;;13.85;10.65;;;;;;;27.30;46.20;101464.81;5092993;28;20067;-56
2021/06/19 10:14:00;;;;;;;12.73;10.25;;;;;;;27.11;48.04;101467.13;5091820;28;20144;-56
2021/06/19 10:16:29;;;;;;;14.73;10.52;;;;;;;27.12;46.53;101460.72;5093282;28;20105;-56
2021/06/19 10:18:56;;;;;;;11.70;9.73;;;;;;;27.53;47.03;101461.03;5089751;28;20058;-55
2021/06/19 10:21:25;;;;;;;13.13;9.07;;;;;;;27.68;46.53;101459.06;5088149;28;20048;-56
2021/06/19 10:23:52;;;;;;;10.75;8.77;;;;;;;27.43;45.77;101461.38;5090878;28;20052;-57
2021/06/19 10:26:23;;;;;;;9.85;7.88;;;;;;;27.30;47.03;101454.84;5091988;28;20046;-56
2021/06/19 10:28:55;;;;;;;12.15;10.10;;;;;;;27.82;45.75;101450.00;5089002;28;20048;-57
2021/06/19 10:31:22;;;;;;;11.35;7.95;;;;;;;27.66;46.50;101453.88;5070317;28;20052;-57
2021/06/19 10:33:49;;;;;;;11.27;8.55;;;;;;;28.04;46.45;101449.91;5087375;28;20090;-56
2021/06/19 10:36:16;;;;;;;11.07;8.55;;;;;;;28.03;46.63;101448.25;5091856;28;20048;-55
2021/06/19 10:38:51;;;;;;;13.02;10.35;;;;;;;28.32;44.74;101455.22;5093084;28;20049;-56
2021/06/19 10:41:20;;;;;;;10.95;8.57;;;;;;;28.21;45.03;101447.72;5091332;28;20067;-55
2021/06/19 10:43:50;;;;;;;10.57;8.68;;;;;;;28.40;44.65;101439.84;5087505;28;20054;-57
2021/06/19 10:46:30;;;;;;;10.73;8.18;;;;;;;29.02;44.46;101439.75;5069903;28;20052;-56
2021/06/19 10:48:59;;;;;;;11.00;8.65;;;;;;;28.87;42.91;101446.19;5087418;28;20495;-57
2021/06/19 10:51:29;;;;;;;12.35;11.07;;;;;;;28.88;41.42;101436.19;5087617;28;20058;-56
2021/06/19 10:54:15;;;;;;;10.32;8.23;;;;;;;29.13;43.42;101441.81;5088825;28;20051;-57
2021/06/19 10:56:45;;;;;;;11.52;9.25;;;;;;;29.29;42.04;101438.72;5091307;28;20052;-55
2021/06/19 10:59:18;;;;;;;11.02;9.63;;;;;;;28.69;42.79;101443.25;5092492;28;20460;-56
2021/06/19 11:01:45;;;;;;;11.27;9.52;;;;;;;28.77;44.19;101435.78;5092226;28;20048;-55
2021/06/19 11:04:38;;;;;;;12.68;10.10;;;;;;;28.87;43.02;101438.06;5088771;28;20082;-56
2021/06/19 11:07:05;;;;;;;12.00;9.00;;;;;;;29.06;43.42;101432.88;5090775;28;20055;-56
2021/06/19 11:09:40;;;;;;;13.40;10.07;;;;;;;28.88;43.88;101425.38;5089743;28;20044;-55
2021/06/19 11:12:28;;;;;;;10.93;9.45;;;;;;;28.97;44.67;101414.16;5086854;28;20054;-56
2021/06/19 11:14:55;;;;;;;12.93;10.20;;;;;;;29.03;43.33;101423.31;5107980;28;20048;-56
2021/06/19 11:17:22;;;;;;;13.05;10.93;;;;;;;28.91;42.73;101414.97;5090030;28;20051;-57
2021/06/19 11:19:54;;;;;;;12.57;9.40;;;;;;;29.08;43.28;101412.69;5088088;28;20055;-55
2021/06/19 11:22:30;;;;;;;12.73;11.32;;;;;;;28.74;42.27;101411.00;5091810;28;20052;-54
2021/06/19 11:25:15;;;;;;;11.90;9.82;;;;;;;28.74;43.28;101417.25;5088682;28;20101;-56
2021/06/19 11:28:11;;;;;;;12.45;11.05;;;;;;;28.69;43.51;101414.34;5087863;28;20086;-54